createdAt,value
2022-11-25T00:01:17.315Z,20.51
2022-11-25T00:03:44.754Z,20.50
2022-11-25T00:06:25.451Z,20.51
2022-11-25T00:08:55.958Z,20.50
2022-11-25T00:11:22.375Z,20.51
2022-11-25T00:13:48.925Z,20.51
2022-11-25T00:16:18.091Z,20.50
2022-11-25T00:18:46.403Z,20.50
2022-11-25T00:21:15.674Z,20.49
2022-11-25T00:23:42.104Z,20.50
2022-11-25T00:26:13.897Z,20.48
2022-11-25T00:28:42.258Z,20.49
2022-11-25T00:31:14.190Z,20.49
2022-11-25T00:33:41.546Z,20.48
2022-11-25T00:36:17.065Z,20.47
2022-11-25T00:38:44.443Z,20.47
2022-11-25T00:41:30.086Z,20.48
2022-11-25T00:44:14.853Z,20.47
2022-11-25T00:46:41.482Z,20.46
2022-11-25T00:49:07.827Z,20.45
2022-11-25T00:51:34.197Z,20.45
2022-11-25T00:54:00.645Z,20.47
2022-11-25T00:56:27.081Z,20.45
2022-11-25T00:58:54.101Z,20.46
2022-11-25T01:01:20.722Z,20.44
2022-11-25T01:03:51.742Z,20.45
2022-11-25T01:06:18.731Z,20.45
2022-11-25T01:08:45.158Z,20.44
2022-11-25T01:11:14.365Z,20.44
2022-11-25T01:13:41.931Z,20.44
2022-11-25T01:16:11.189Z,20.44
2022-11-25T01:18:37.693Z,20.44
2022-11-25T01:21:09.891Z,20.43
2022-11-25T01:23:37.127Z,20.42
2022-11-25T01:26:05.012Z,20.42
2022-11-25T01:28:31.813Z,20.43
2022-11-25T01:31:06.454Z,20.42
2022-11-25T01:33:34.224Z,20.42
2022-11-25T01:36:06.301Z,20.42
2022-11-25T01:38:33.913Z,20.42
2022-11-25T01:41:01.197Z,20.42
2022-11-25T01:43:28.710Z,20.40
2022-11-25T01:46:07.592Z,20.38
2022-11-25T01:48:47.090Z,20.39
2022-11-25T01:51:29.856Z,20.39
2022-11-25T01:54:01.605Z,20.38
2022-11-25T01:56:30.885Z,20.38
2022-11-25T01:58:57.375Z,20.38
2022-11-25T02:01:24.188Z,20.38
2022-11-25T02:03:54.194Z,20.38
2022-11-25T02:06:26.921Z,20.37
2022-11-25T02:09:01.409Z,20.37
2022-11-25T02:11:30.804Z,20.37
2022-11-25T02:13:59.092Z,20.36
2022-11-25T02:16:25.633Z,20.35
2022-11-25T02:18:52.433Z,20.34
2022-11-25T02:21:25.881Z,20.35
2022-11-25T02:23:56.328Z,20.35
2022-11-25T02:26:23.389Z,20.34
2022-11-25T02:28:50.064Z,20.35
2022-11-25T02:31:22.070Z,20.34
2022-11-25T02:33:48.817Z,20.33
2022-11-25T02:36:19.112Z,20.33
2022-11-25T02:38:51.939Z,20.33
2022-11-25T02:41:24.928Z,20.34
2022-11-25T02:43:51.326Z,20.31
2022-11-25T02:46:22.622Z,20.31
2022-11-25T02:49:08.484Z,20.31
2022-11-25T02:51:36.798Z,20.32
2022-11-25T02:54:03.288Z,20.29
2022-11-25T02:56:32.305Z,20.30
2022-11-25T02:58:59.373Z,20.29
2022-11-25T03:01:26.579Z,20.29
2022-11-25T03:03:53.151Z,20.29
2022-11-25T03:06:19.486Z,20.28
2022-11-25T03:08:45.839Z,20.27
2022-11-25T03:11:12.469Z,20.28
2022-11-25T03:13:38.798Z,20.27
2022-11-25T03:16:05.444Z,20.28
2022-11-25T03:18:32.058Z,20.27
2022-11-25T03:20:58.512Z,20.26
2022-11-25T03:23:25.597Z,20.26
2022-11-25T03:25:51.946Z,20.25
2022-11-25T03:28:18.545Z,20.26
2022-11-25T03:30:45.050Z,20.24
2022-11-25T03:33:11.543Z,20.24
2022-11-25T03:35:37.931Z,20.22
2022-11-25T03:38:04.625Z,20.23
2022-11-25T03:40:31.011Z,20.23
2022-11-25T03:42:57.403Z,20.23
2022-11-25T03:45:23.778Z,20.23
2022-11-25T03:47:50.170Z,20.21
2022-11-25T03:50:16.644Z,20.21
2022-11-25T03:52:42.957Z,20.21
2022-11-25T03:55:10.267Z,20.20
2022-11-25T03:57:36.619Z,20.20
2022-11-25T04:00:04.462Z,20.19
2022-11-25T04:02:30.900Z,20.19
2022-11-25T04:04:57.374Z,20.20
2022-11-25T04:07:23.762Z,20.19
2022-11-25T04:09:50.081Z,20.19
2022-11-25T04:12:35.054Z,20.18
2022-11-25T04:15:01.439Z,20.17
2022-11-25T04:17:27.834Z,20.17
2022-11-25T04:19:54.169Z,20.17
2022-11-25T04:22:20.565Z,20.17
2022-11-25T04:24:47.076Z,20.16
2022-11-25T04:27:13.471Z,20.17
2022-11-25T04:29:39.831Z,20.15
2022-11-25T04:32:06.221Z,20.14
2022-11-25T04:34:32.566Z,20.14
2022-11-25T04:36:58.959Z,20.14
2022-11-25T04:39:25.322Z,20.13
2022-11-25T04:42:11.617Z,20.13
2022-11-25T04:44:38.116Z,20.12
2022-11-25T04:47:04.711Z,20.12
2022-11-25T04:49:31.102Z,20.12
2022-11-25T04:51:57.472Z,20.11
2022-11-25T04:54:23.805Z,20.11
2022-11-25T04:56:50.129Z,20.10
2022-11-25T04:59:35.062Z,20.10
2022-11-25T05:02:01.426Z,20.10
2022-11-25T05:04:27.809Z,20.10
2022-11-25T05:06:54.169Z,20.09
2022-11-25T05:09:20.486Z,20.07
2022-11-25T05:11:46.818Z,20.08
2022-11-25T05:14:13.250Z,20.06
2022-11-25T05:16:39.723Z,20.07
2022-11-25T05:19:06.101Z,20.08
2022-11-25T05:21:33.030Z,20.06
2022-11-25T05:23:59.341Z,20.04
2022-11-25T05:26:25.747Z,20.04
2022-11-25T05:28:52.123Z,20.04
2022-11-25T05:31:18.654Z,20.04
2022-11-25T05:33:45.090Z,20.03
2022-11-25T05:36:11.460Z,20.04
2022-11-25T05:38:37.842Z,20.02
2022-11-25T05:41:06.591Z,20.02
2022-11-25T05:43:33.503Z,20.01
2022-11-25T05:46:03.821Z,20.02
2022-11-25T05:48:30.177Z,20.02
2022-11-25T05:51:00.162Z,20.00
2022-11-25T05:53:26.783Z,20.00
2022-11-25T05:55:58.405Z,19.99
2022-11-25T05:58:24.960Z,19.99
2022-11-25T06:00:51.508Z,19.99
2022-11-25T06:03:17.941Z,19.99
2022-11-25T06:05:44.716Z,19.98
2022-11-25T06:08:11.461Z,19.97
2022-11-25T06:10:40.650Z,19.97
2022-11-25T06:13:08.652Z,19.96
2022-11-25T06:15:40.691Z,19.96
2022-11-25T06:18:07.022Z,19.96
2022-11-25T06:20:33.385Z,19.96
2022-11-25T06:22:59.781Z,19.95
2022-11-25T06:25:26.546Z,19.95
2022-11-25T06:30:39.298Z,19.95
2022-11-25T06:33:05.627Z,19.95
2022-11-25T06:35:32.092Z,19.94
2022-11-25T06:37:59.561Z,19.93
2022-11-25T06:40:26.031Z,19.94
2022-11-25T06:42:52.418Z,19.95
2022-11-25T06:45:18.801Z,19.95
2022-11-25T06:47:45.206Z,19.95
2022-11-25T06:50:11.718Z,19.96
2022-11-25T06:52:38.026Z,19.94
2022-11-25T06:55:04.827Z,19.95
2022-11-25T06:57:31.184Z,19.96
2022-11-25T06:59:57.526Z,19.97
2022-11-25T07:02:23.906Z,19.97
2022-11-25T07:04:50.270Z,19.97
2022-11-25T07:07:16.732Z,19.95
2022-11-25T07:09:43.254Z,19.97
2022-11-25T07:12:09.694Z,19.98
2022-11-25T07:14:36.436Z,19.99
2022-11-25T07:17:06.167Z,19.99
2022-11-25T07:19:35.814Z,20.00
2022-11-25T07:22:02.674Z,20.02
2022-11-25T07:24:28.998Z,20.01
2022-11-25T07:26:55.331Z,20.02
2022-11-25T07:29:57.966Z,20.02
2022-11-25T07:32:10.803Z,20.03
2022-11-25T07:34:37.451Z,20.04
2022-11-25T07:37:03.849Z,20.04
2022-11-25T07:39:30.202Z,20.04
2022-11-25T07:41:56.698Z,20.04
2022-11-25T07:44:23.330Z,20.00
2022-11-25T07:46:50.853Z,20.02
2022-11-25T07:49:26.726Z,20.02
2022-11-25T07:51:55.665Z,20.04
2022-11-25T07:54:22.547Z,20.03
2022-11-25T07:56:50.621Z,20.05
2022-11-25T07:59:19.821Z,20.05
2022-11-25T08:01:46.574Z,20.06
2022-11-25T08:04:20.054Z,20.03
2022-11-25T08:06:50.041Z,20.04
2022-11-25T08:09:19.634Z,20.04
2022-11-25T08:11:47.251Z,20.04
2022-11-25T08:14:13.999Z,20.04
2022-11-25T08:16:40.470Z,20.05
2022-11-25T08:19:11.339Z,20.07
2022-11-25T08:21:37.698Z,20.09
2022-11-25T08:24:04.210Z,20.10
2022-11-25T08:26:34.871Z,20.09
2022-11-25T08:29:01.769Z,20.09
2022-11-25T08:31:36.763Z,20.09
2022-11-25T08:34:04.398Z,20.09
2022-11-25T08:36:31.423Z,20.10
2022-11-25T08:39:00.042Z,20.09
2022-11-25T08:41:29.799Z,20.10
2022-11-25T08:43:57.786Z,20.12
2022-11-25T08:46:27.865Z,20.13
2022-11-25T08:48:55.613Z,20.15
2022-11-25T08:51:25.847Z,20.14
2022-11-25T08:53:52.696Z,20.15
2022-11-25T08:56:25.799Z,20.15
2022-11-25T08:58:53.295Z,20.16
2022-11-25T09:01:21.435Z,20.17
2022-11-25T09:03:50.320Z,20.18
2022-11-25T09:06:17.573Z,20.18
2022-11-25T09:08:44.745Z,20.18
2022-11-25T09:11:12.049Z,20.19
2022-11-25T09:13:38.732Z,20.18
2022-11-25T09:16:05.822Z,20.19
2022-11-25T09:18:32.582Z,20.20
2022-11-25T09:20:59.443Z,20.20
2022-11-25T09:23:26.549Z,20.20
2022-11-25T09:25:54.364Z,20.20
2022-11-25T09:28:22.682Z,20.22
2022-11-25T09:30:49.530Z,20.22
2022-11-25T09:33:16.850Z,20.23
2022-11-25T09:35:43.418Z,20.25
2022-11-25T09:38:10.259Z,20.25
2022-11-25T09:40:55.261Z,20.26
2022-11-25T09:44:16.212Z,20.26
2022-11-25T09:47:06.994Z,20.27
2022-11-25T09:49:55.238Z,20.28
2022-11-25T09:52:46.123Z,20.28
2022-11-25T09:55:19.275Z,20.29
2022-11-25T09:58:14.680Z,20.28
2022-11-25T10:00:47.262Z,20.29
2022-11-25T10:03:30.942Z,20.30
2022-11-25T10:06:10.511Z,20.31
2022-11-25T10:08:40.024Z,20.31
2022-11-25T10:11:26.513Z,20.31
2022-11-25T10:13:59.814Z,20.33
2022-11-25T10:16:38.402Z,20.32
2022-11-25T10:19:21.094Z,20.34
2022-11-25T10:21:47.489Z,20.37
2022-11-25T10:24:17.555Z,20.37
2022-11-25T10:26:49.631Z,20.38
2022-11-25T10:29:28.295Z,20.39
2022-11-25T10:32:06.298Z,20.41
2022-11-25T10:34:45.308Z,20.45
2022-11-25T10:37:18.816Z,20.46
2022-11-25T10:39:45.219Z,20.46
2022-11-25T10:42:20.951Z,20.46
2022-11-25T10:44:47.315Z,20.49
2022-11-25T10:47:59.383Z,20.50
2022-11-25T10:50:37.202Z,20.51
2022-11-25T10:53:16.336Z,20.52
2022-11-25T10:55:59.223Z,20.53
2022-11-25T10:58:29.282Z,20.54
2022-11-25T11:01:20.840Z,20.55
2022-11-25T11:04:03.497Z,20.56
2022-11-25T11:06:36.767Z,20.58
2022-11-25T11:09:03.958Z,20.58
2022-11-25T11:11:30.609Z,20.60
2022-11-25T11:14:13.882Z,20.59
2022-11-25T11:16:42.955Z,20.61
2022-11-25T11:19:31.938Z,20.63
2022-11-25T11:22:15.978Z,20.64
2022-11-25T11:24:42.536Z,20.64
2022-11-25T11:27:20.776Z,20.67
2022-11-25T11:29:47.306Z,20.69
2022-11-25T11:32:24.804Z,20.69
2022-11-25T11:35:39.009Z,20.68
2022-11-25T11:38:31.422Z,20.70
2022-11-25T11:41:10.466Z,20.71
2022-11-25T11:43:36.764Z,20.72
2022-11-25T11:46:41.232Z,20.69
2022-11-25T11:49:30.773Z,20.71
2022-11-25T11:52:04.050Z,20.72
2022-11-25T11:54:45.406Z,20.77
2022-11-25T11:57:50.733Z,20.79
2022-11-25T12:00:20.328Z,20.81
2022-11-25T12:03:21.901Z,20.84
2022-11-25T12:05:54.123Z,20.84
2022-11-25T12:08:33.701Z,20.85
2022-11-25T12:11:04.277Z,20.86
2022-11-25T12:14:06.952Z,20.87
2022-11-25T12:16:45.416Z,20.86
2022-11-25T12:19:27.474Z,20.87
2022-11-25T12:22:03.481Z,20.87
2022-11-25T12:24:39.396Z,20.88
2022-11-25T12:27:17.006Z,20.85
2022-11-25T12:29:57.355Z,20.83
2022-11-25T12:32:42.009Z,20.82
2022-11-25T12:35:11.268Z,20.82
2022-11-25T12:37:58.775Z,20.80
2022-11-25T12:40:46.915Z,20.81
2022-11-25T12:43:35.091Z,20.83
2022-11-25T12:46:14.551Z,20.83
2022-11-25T12:48:42.771Z,20.82
2022-11-25T12:51:14.906Z,20.83
2022-11-25T12:54:01.508Z,20.81
2022-11-25T12:56:44.083Z,20.79
2022-11-25T12:59:44.075Z,20.79
2022-11-25T13:02:23.519Z,20.79
2022-11-25T13:05:43.944Z,20.81
2022-11-25T13:08:54.012Z,20.81
2022-11-25T13:11:45.794Z,20.84
2022-11-25T13:14:22.680Z,20.83
2022-11-25T13:16:50.775Z,20.83
2022-11-25T13:19:21.483Z,20.82
2022-11-25T13:22:02.467Z,20.82
2022-11-25T13:24:34.072Z,20.81
2022-11-25T13:27:05.360Z,20.81
2022-11-25T13:29:31.611Z,20.80
2022-11-25T13:32:05.047Z,20.79
2022-11-25T13:34:33.425Z,20.79
2022-11-25T13:37:01.992Z,20.69
2022-11-25T13:39:37.265Z,20.66
2022-11-25T13:42:26.546Z,20.68
2022-11-25T13:45:00.340Z,20.64
2022-11-25T13:47:29.458Z,20.64
2022-11-25T13:50:00.595Z,20.65
2022-11-25T13:52:37.882Z,20.64
2022-11-25T13:55:20.790Z,20.65
2022-11-25T13:58:00.325Z,20.67
2022-11-25T14:00:35.702Z,20.70
2022-11-25T14:03:20.456Z,20.71
2022-11-25T14:06:05.090Z,20.72
2022-11-25T14:08:56.429Z,20.74
2022-11-25T14:11:44.424Z,20.75
2022-11-25T14:14:34.396Z,20.77
2022-11-25T14:17:11.066Z,20.77
2022-11-25T14:19:55.482Z,20.79
2022-11-25T14:22:36.663Z,20.81
2022-11-25T14:25:22.260Z,20.82
2022-11-25T14:27:56.381Z,20.81
2022-11-25T14:30:26.330Z,20.84
2022-11-25T14:32:58.982Z,20.84
2022-11-25T14:35:44.843Z,20.83
2022-11-25T14:38:19.603Z,20.83
2022-11-25T14:40:55.291Z,20.82
2022-11-25T14:43:24.665Z,20.84
2022-11-25T14:46:12.720Z,20.84
2022-11-25T14:48:39.228Z,20.83
2022-11-25T14:51:07.699Z,20.85
2022-11-25T14:53:46.009Z,20.82
2022-11-25T14:56:17.158Z,20.81
2022-11-25T14:58:48.394Z,20.81
2022-11-25T15:01:26.445Z,20.81
2022-11-25T15:04:22.283Z,20.80
2022-11-25T15:06:54.303Z,20.81
2022-11-25T15:09:25.003Z,20.79
2022-11-25T15:11:56.336Z,20.80
2022-11-25T15:14:32.862Z,20.80
2022-11-25T15:17:01.066Z,20.78
2022-11-25T15:19:34.102Z,20.78
2022-11-25T15:22:23.618Z,20.78
2022-11-25T15:24:55.559Z,20.79
2022-11-25T15:27:25.811Z,20.77
2022-11-25T15:29:53.501Z,20.77
2022-11-25T15:32:27.293Z,20.77
2022-11-25T15:34:56.141Z,20.78
2022-11-25T15:37:24.012Z,20.77
2022-11-25T15:40:10.641Z,20.78
2022-11-25T15:42:37.067Z,20.80
2022-11-25T15:45:11.019Z,20.80
2022-11-25T15:47:37.425Z,20.80
2022-11-25T15:50:22.987Z,20.81
2022-11-25T15:52:52.879Z,20.81
2022-11-25T15:55:35.523Z,20.81
2022-11-25T15:58:08.148Z,20.81
2022-11-25T16:00:34.526Z,20.82
2022-11-25T16:03:00.952Z,20.83
2022-11-25T16:05:32.721Z,20.85
2022-11-25T16:08:02.277Z,20.85
2022-11-25T16:10:32.710Z,20.85
2022-11-25T16:13:23.491Z,20.86
2022-11-25T16:15:56.005Z,20.86
2022-11-25T16:18:42.617Z,20.85
2022-11-25T16:21:13.014Z,20.85
2022-11-25T16:23:44.044Z,20.85
2022-11-25T16:26:13.727Z,20.85
2022-11-25T16:28:42.592Z,20.86
2022-11-25T16:31:15.731Z,20.85
2022-11-25T16:33:42.614Z,20.85
2022-11-25T16:36:09.785Z,20.87
2022-11-25T16:38:36.246Z,20.86
2022-11-25T16:41:11.852Z,20.86
2022-11-25T16:43:41.173Z,20.87
2022-11-25T16:46:07.674Z,20.87
2022-11-25T16:48:34.234Z,20.88
2022-11-25T16:51:00.678Z,20.88
2022-11-25T16:53:27.214Z,20.90
2022-11-25T16:55:53.574Z,20.90
2022-11-25T16:58:24.027Z,20.90
2022-11-25T17:00:53.527Z,20.92
2022-11-25T17:03:20.533Z,20.94
2022-11-25T17:05:46.997Z,20.95
2022-11-25T17:08:14.080Z,20.90
2022-11-25T17:10:43.195Z,20.87
2022-11-25T17:13:18.578Z,20.84
2022-11-25T17:15:46.234Z,20.84
2022-11-25T17:18:17.906Z,20.83
2022-11-25T17:20:46.173Z,20.83
2022-11-25T17:23:17.429Z,20.83
2022-11-25T17:25:47.568Z,20.83
2022-11-25T17:28:20.057Z,20.83
2022-11-25T17:30:47.253Z,20.82
2022-11-25T17:33:16.712Z,20.84
2022-11-25T17:35:43.838Z,20.85
2022-11-25T17:38:20.125Z,20.85
2022-11-25T17:40:47.316Z,20.85
2022-11-25T17:43:19.110Z,20.85
2022-11-25T17:45:47.024Z,20.85
2022-11-25T17:48:18.206Z,20.86
2022-11-25T17:50:45.329Z,20.87
2022-11-25T17:53:11.647Z,20.87
2022-11-25T17:55:39.866Z,20.88
2022-11-25T17:58:08.346Z,20.87
2022-11-25T18:00:35.241Z,20.88
2022-11-25T18:03:01.809Z,20.87
2022-11-25T18:05:28.501Z,20.87
2022-11-25T18:07:55.173Z,20.87
2022-11-25T18:10:25.947Z,20.88
2022-11-25T18:12:54.351Z,20.87
2022-11-25T18:15:23.602Z,20.86
2022-11-25T18:17:54.053Z,20.88
2022-11-25T18:20:24.906Z,20.86
2022-11-25T18:22:52.600Z,20.86
2022-11-25T18:25:22.207Z,20.86
2022-11-25T18:27:49.744Z,20.87
2022-11-25T18:30:21.690Z,20.87
2022-11-25T18:32:48.470Z,20.86
2022-11-25T18:35:16.707Z,20.87
2022-11-25T18:37:43.097Z,20.86
2022-11-25T18:40:09.714Z,20.88
2022-11-25T18:42:36.134Z,20.87
2022-11-25T18:45:03.027Z,20.86
2022-11-25T18:47:29.403Z,20.87
2022-11-25T18:49:56.624Z,20.87
2022-11-25T18:52:24.888Z,20.87
2022-11-25T18:54:51.366Z,20.87
2022-11-25T18:57:17.793Z,20.88
2022-11-25T18:59:44.629Z,20.87
2022-11-25T19:02:17.311Z,20.86
2022-11-25T19:04:44.399Z,20.89
2022-11-25T19:07:10.859Z,20.94
2022-11-25T19:09:37.491Z,20.96
2022-11-25T19:12:04.128Z,20.98
2022-11-25T19:14:35.400Z,21.00
2022-11-25T19:17:06.803Z,21.01
2022-11-25T19:19:33.832Z,21.04
2022-11-25T19:22:01.388Z,21.04
2022-11-25T19:24:28.634Z,21.05
2022-11-25T19:26:56.897Z,21.06
2022-11-25T19:29:38.766Z,21.06
2022-11-25T19:32:22.108Z,21.07
2022-11-25T19:34:52.973Z,21.08
2022-11-25T19:37:21.575Z,21.10
2022-11-25T19:39:49.884Z,21.09
2022-11-25T19:42:16.326Z,21.09
2022-11-25T19:44:43.053Z,21.07
2022-11-25T19:47:20.580Z,21.08
2022-11-25T19:49:47.962Z,21.08
2022-11-25T19:52:20.595Z,21.09
2022-11-25T19:54:47.163Z,21.10
2022-11-25T19:57:19.831Z,21.10
2022-11-25T19:59:46.757Z,21.12
2022-11-25T20:02:16.180Z,21.11
2022-11-25T20:04:44.191Z,21.12
2022-11-25T20:07:12.460Z,21.12
2022-11-25T20:09:40.055Z,21.12
2022-11-25T20:12:27.919Z,21.11
2022-11-25T20:14:54.386Z,21.11
2022-11-25T20:17:31.327Z,21.12
2022-11-25T20:20:13.790Z,21.11
2022-11-25T20:22:44.182Z,21.12
2022-11-25T20:25:14.756Z,21.12
2022-11-25T20:27:41.441Z,21.12
2022-11-25T20:30:28.512Z,21.12
2022-11-25T20:32:55.560Z,21.10
2022-11-25T20:35:25.062Z,21.10
2022-11-25T20:37:54.279Z,21.12
2022-11-25T20:40:24.697Z,21.14
2022-11-25T20:42:51.724Z,21.15
2022-11-25T20:45:21.609Z,21.15
2022-11-25T20:47:50.704Z,21.17
2022-11-25T20:50:19.566Z,21.14
2022-11-25T20:52:47.754Z,21.14
2022-11-25T20:55:15.663Z,21.15
2022-11-25T20:57:42.666Z,21.16
2022-11-25T21:00:19.734Z,21.16
2022-11-25T21:02:46.321Z,21.16
2022-11-25T21:05:12.902Z,21.17
2022-11-25T21:07:40.241Z,21.17
2022-11-25T21:10:20.439Z,21.14
2022-11-25T21:12:47.074Z,21.13
2022-11-25T21:15:15.910Z,21.13
2022-11-25T21:17:42.355Z,21.14
2022-11-25T21:20:09.098Z,21.12
2022-11-25T21:22:41.061Z,21.13
2022-11-25T21:25:12.562Z,21.13
2022-11-25T21:27:39.973Z,21.12
2022-11-25T21:30:07.525Z,21.12
2022-11-25T21:32:34.570Z,21.12
2022-11-25T21:35:03.806Z,21.10
2022-11-25T21:37:38.841Z,21.09
2022-11-25T21:40:05.919Z,21.08
2022-11-25T21:42:32.833Z,21.06
2022-11-25T21:44:59.294Z,21.05
2022-11-25T21:47:29.365Z,21.04
2022-11-25T21:49:55.758Z,21.03
2022-11-25T21:52:22.171Z,21.02
2022-11-25T21:54:48.546Z,21.02
2022-11-25T21:57:22.464Z,21.02
2022-11-25T21:59:49.087Z,21.02
2022-11-25T22:02:22.012Z,21.01
2022-11-25T22:04:48.510Z,21.00
2022-11-25T22:07:15.075Z,21.00
2022-11-25T22:09:42.102Z,20.99
2022-11-25T22:12:29.391Z,20.98
2022-11-25T22:14:58.601Z,20.96
2022-11-25T22:17:25.997Z,20.97
2022-11-25T22:19:53.173Z,20.95
2022-11-25T22:22:19.526Z,20.95
2022-11-25T22:24:45.927Z,20.95
2022-11-25T22:27:21.402Z,20.92
2022-11-25T22:29:48.482Z,20.93
2022-11-25T22:32:16.239Z,20.92
2022-11-25T22:34:43.474Z,20.91
2022-11-25T22:37:16.549Z,20.91
2022-11-25T22:39:42.927Z,20.91
2022-11-25T22:42:14.942Z,20.90
2022-11-25T22:44:45.167Z,20.88
2022-11-25T22:47:25.741Z,20.87
2022-11-25T22:49:52.778Z,20.88
2022-11-25T22:52:22.328Z,20.87
2022-11-25T22:54:49.379Z,20.87
2022-11-25T22:57:16.642Z,20.86
2022-11-25T22:59:43.262Z,20.86
2022-11-25T23:02:18.006Z,20.86
2022-11-25T23:04:48.775Z,20.86
2022-11-25T23:07:15.195Z,20.86
2022-11-25T23:09:42.704Z,20.84
2022-11-25T23:12:12.638Z,20.83
2022-11-25T23:14:39.555Z,20.84
2022-11-25T23:17:16.239Z,20.84
2022-11-25T23:19:42.622Z,20.83
2022-11-25T23:22:12.455Z,20.82
2022-11-25T23:24:47.217Z,20.84
2022-11-25T23:27:14.430Z,20.83
2022-11-25T23:29:40.961Z,20.82
2022-11-25T23:32:18.374Z,20.82
2022-11-25T23:34:45.034Z,20.82
2022-11-25T23:37:14.493Z,20.81
2022-11-25T23:39:41.315Z,20.82
2022-11-25T23:42:25.706Z,20.80
2022-11-25T23:44:52.066Z,20.82
2022-11-25T23:47:21.614Z,20.80
2022-11-25T23:49:50.933Z,20.79
2022-11-25T23:52:22.640Z,20.78
2022-11-25T23:54:50.693Z,20.79
2022-11-25T23:57:27.579Z,20.80
2022-11-25T23:59:53.978Z,20.78
